sensor_id;sensor_type;location;lat;lon;timestamp;pressure;altitude;pressure_sealevel;temperature;humidity
75692;BME280;64307;52.508;6.090;2022-11-20T00:00:40;101486.47;;;-1.49;86.90
75692;BME280;64307;52.508;6.090;2022-11-20T00:03:06;101476.66;;;-1.50;88.47
75692;BME280;64307;52.508;6.090;2022-11-20T00:05:32;101460.06;;;-1.53;88.41
75692;BME280;64307;52.508;6.090;2022-11-20T00:07:57;101481.00;;;-1.49;88.00
75692;BME280;64307;52.508;6.090;2022-11-20T00:10:23;101474.22;;;-1.51;88.74
75692;BME280;64307;52.508;6.090;2022-11-20T00:12:48;101468.53;;;-1.55;88.66
75692;BME280;64307;52.508;6.090;2022-11-20T00:15:13;101458.22;;;-1.58;87.82
75692;BME280;64307;52.508;6.090;2022-11-20T00:17:39;101465.22;;;-1.52;87.94
75692;BME280;64307;52.508;6.090;2022-11-20T00:20:04;101454.06;;;-1.55;87.68
75692;BME280;64307;52.508;6.090;2022-11-20T00:22:30;101445.69;;;-1.59;88.10
75692;BME280;64307;52.508;6.090;2022-11-20T00:24:55;101449.00;;;-1.62;87.75
75692;BME280;64307;52.508;6.090;2022-11-20T00:27:22;101451.16;;;-1.59;88.07
75692;BME280;64307;52.508;6.090;2022-11-20T00:29:47;101443.97;;;-1.55;87.61
75692;BME280;64307;52.508;6.090;2022-11-20T00:32:12;101443.84;;;-1.63;87.15
75692;BME280;64307;52.508;6.090;2022-11-20T00:34:38;101440.94;;;-1.67;88.20
75692;BME280;64307;52.508;6.090;2022-11-20T00:37:03;101441.03;;;-1.58;88.61
75692;BME280;64307;52.508;6.090;2022-11-20T00:39:28;101429.50;;;-1.55;88.41
75692;BME280;64307;52.508;6.090;2022-11-20T00:41:54;101429.81;;;-1.57;88.21
75692;BME280;64307;52.508;6.090;2022-11-20T00:44:19;101437.19;;;-1.57;87.93
75692;BME280;64307;52.508;6.090;2022-11-20T00:46:44;101447.41;;;-1.63;88.21
75692;BME280;64307;52.508;6.090;2022-11-20T00:49:09;101445.56;;;-1.68;87.78
75692;BME280;64307;52.508;6.090;2022-11-20T00:51:35;101459.94;;;-1.62;88.94
75692;BME280;64307;52.508;6.090;2022-11-20T00:54:00;101457.44;;;-1.58;88.76
75692;BME280;64307;52.508;6.090;2022-11-20T00:56:27;101456.63;;;-1.59;88.16
75692;BME280;64307;52.508;6.090;2022-11-20T00:58:52;101442.44;;;-1.61;88.50
75692;BME280;64307;52.508;6.090;2022-11-20T01:01:23;101429.28;;;-1.73;88.24
75692;BME280;64307;52.508;6.090;2022-11-20T01:03:53;101438.69;;;-1.65;87.93
75692;BME280;64307;52.508;6.090;2022-11-20T01:06:21;101439.53;;;-1.64;88.22
75692;BME280;64307;52.508;6.090;2022-11-20T01:08:48;101427.06;;;-1.71;88.03
75692;BME280;64307;52.508;6.090;2022-11-20T01:11:19;101431.31;;;-1.64;88.16
75692;BME280;64307;52.508;6.090;2022-11-20T01:13:46;101440.81;;;-1.62;88.92
75692;BME280;64307;52.508;6.090;2022-11-20T01:16:21;101448.50;;;-1.64;88.22
75692;BME280;64307;52.508;6.090;2022-11-20T01:18:49;101442.63;;;-1.71;88.81
75692;BME280;64307;52.508;6.090;2022-11-20T01:21:17;101443.72;;;-1.72;89.17
75692;BME280;64307;52.508;6.090;2022-11-20T01:23:44;101427.22;;;-1.81;88.74
75692;BME280;64307;52.508;6.090;2022-11-20T01:26:11;101443.16;;;-1.69;89.41
75692;BME280;64307;52.508;6.090;2022-11-20T01:28:37;101439.28;;;-1.68;88.50
75692;BME280;64307;52.508;6.090;2022-11-20T01:31:17;101431.91;;;-1.68;88.59
75692;BME280;64307;52.508;6.090;2022-11-20T01:33:44;101427.34;;;-1.72;88.31
75692;BME280;64307;52.508;6.090;2022-11-20T01:36:10;101416.44;;;-1.72;87.97
75692;BME280;64307;52.508;6.090;2022-11-20T01:38:36;101416.63;;;-1.82;88.38
75692;BME280;64307;52.508;6.090;2022-11-20T01:41:02;101420.50;;;-1.70;88.69
75692;BME280;64307;52.508;6.090;2022-11-20T01:43:28;101412.09;;;-1.73;88.12
75692;BME280;64307;52.508;6.090;2022-11-20T01:48:37;101406.13;;;-1.75;88.26
75692;BME280;64307;52.508;6.090;2022-11-20T01:51:07;101407.16;;;-1.71;88.80
75692;BME280;64307;52.508;6.090;2022-11-20T01:53:37;101400.56;;;-1.84;88.58
75692;BME280;64307;52.508;6.090;2022-11-20T01:56:05;101392.56;;;-1.80;88.43
75692;BME280;64307;52.508;6.090;2022-11-20T01:58:35;101398.53;;;-1.78;88.59
75692;BME280;64307;52.508;6.090;2022-11-20T02:01:04;101417.34;;;-1.77;88.18
75692;BME280;64307;52.508;6.090;2022-11-20T02:03:30;101408.88;;;-1.75;88.32
75692;BME280;64307;52.508;6.090;2022-11-20T02:08:31;101402.47;;;-1.84;88.98
75692;BME280;64307;52.508;6.090;2022-11-20T02:10:57;101400.06;;;-1.72;88.51
75692;BME280;64307;52.508;6.090;2022-11-20T02:13:22;101393.69;;;-1.81;88.75
75692;BME280;64307;52.508;6.090;2022-11-20T02:16:30;101375.88;;;-1.92;88.48
75692;BME280;64307;52.508;6.090;2022-11-20T02:18:56;101385.75;;;-1.96;88.13
75692;BME280;64307;52.508;6.090;2022-11-20T02:21:40;101377.78;;;-1.93;88.68
75692;BME280;64307;52.508;6.090;2022-11-20T02:24:11;101378.94;;;-1.67;88.32
75692;BME280;64307;52.508;6.090;2022-11-20T02:26:42;101372.44;;;-1.84;88.02
75692;BME280;64307;52.508;6.090;2022-11-20T02:29:09;101375.97;;;-1.97;89.34
75692;BME280;64307;52.508;6.090;2022-11-20T02:31:40;101383.03;;;-1.96;88.89
75692;BME280;64307;52.508;6.090;2022-11-20T02:34:06;101385.88;;;-2.01;89.61
75692;BME280;64307;52.508;6.090;2022-11-20T02:36:33;101374.97;;;-2.01;89.21
75692;BME280;64307;52.508;6.090;2022-11-20T02:38:59;101370.34;;;-1.87;89.57
75692;BME280;64307;52.508;6.090;2022-11-20T02:41:36;101381.44;;;-1.84;89.69
75692;BME280;64307;52.508;6.090;2022-11-20T02:44:03;101373.75;;;-1.95;89.58
75692;BME280;64307;52.508;6.090;2022-11-20T02:46:28;101383.06;;;-1.83;89.72
75692;BME280;64307;52.508;6.090;2022-11-20T02:48:54;101383.88;;;-1.82;89.49
75692;BME280;64307;52.508;6.090;2022-11-20T02:51:19;101387.22;;;-1.85;89.54
75692;BME280;64307;52.508;6.090;2022-11-20T02:53:44;101383.66;;;-1.99;90.15
75692;BME280;64307;52.508;6.090;2022-11-20T02:56:10;101385.56;;;-2.00;90.01
75692;BME280;64307;52.508;6.090;2022-11-20T02:58:35;101370.00;;;-1.99;89.96
75692;BME280;64307;52.508;6.090;2022-11-20T03:01:00;101360.56;;;-2.07;89.60
75692;BME280;64307;52.508;6.090;2022-11-20T03:03:26;101380.81;;;-1.94;89.93
75692;BME280;64307;52.508;6.090;2022-11-20T03:05:51;101378.09;;;-1.94;89.43
75692;BME280;64307;52.508;6.090;2022-11-20T03:08:16;101370.28;;;-2.01;89.62
75692;BME280;64307;52.508;6.090;2022-11-20T03:10:41;101353.78;;;-2.23;90.18
75692;BME280;64307;52.508;6.090;2022-11-20T03:13:07;101370.47;;;-2.11;90.62
75692;BME280;64307;52.508;6.090;2022-11-20T03:15:32;101381.72;;;-1.99;90.03
75692;BME280;64307;52.508;6.090;2022-11-20T03:17:57;101375.03;;;-2.06;89.82
75692;BME280;64307;52.508;6.090;2022-11-20T03:20:23;101367.94;;;-2.07;89.58
75692;BME280;64307;52.508;6.090;2022-11-20T03:22:48;101338.75;;;-2.20;89.61
75692;BME280;64307;52.508;6.090;2022-11-20T03:25:13;101347.25;;;-2.08;89.99
75692;BME280;64307;52.508;6.090;2022-11-20T03:27:40;101348.13;;;-2.26;90.14
75692;BME280;64307;52.508;6.090;2022-11-20T03:30:05;101358.09;;;-2.03;90.21
75692;BME280;64307;52.508;6.090;2022-11-20T03:32:31;101348.84;;;-2.07;90.23
75692;BME280;64307;52.508;6.090;2022-11-20T03:34:56;101355.56;;;-2.00;90.05
75692;BME280;64307;52.508;6.090;2022-11-20T03:37:21;101348.19;;;-1.99;90.03
75692;BME280;64307;52.508;6.090;2022-11-20T03:39:47;101330.38;;;-2.10;90.12
75692;BME280;64307;52.508;6.090;2022-11-20T03:42:12;101345.84;;;-2.06;89.74
75692;BME280;64307;52.508;6.090;2022-11-20T03:44:56;101333.41;;;-2.12;89.67
75692;BME280;64307;52.508;6.090;2022-11-20T03:47:21;101336.50;;;-2.18;89.88
75692;BME280;64307;52.508;6.090;2022-11-20T03:49:46;101321.03;;;-2.36;90.34
75692;BME280;64307;52.508;6.090;2022-11-20T03:52:12;101319.00;;;-2.31;91.07
75692;BME280;64307;52.508;6.090;2022-11-20T03:54:37;101324.84;;;-2.37;91.76
75692;BME280;64307;52.508;6.090;2022-11-20T03:57:02;101331.63;;;-2.35;91.62
75692;BME280;64307;52.508;6.090;2022-11-20T03:59:27;101327.69;;;-2.42;92.10
75692;BME280;64307;52.508;6.090;2022-11-20T04:01:53;101322.44;;;-2.25;91.84
75692;BME280;64307;52.508;6.090;2022-11-20T04:04:18;101327.53;;;-2.19;91.42
75692;BME280;64307;52.508;6.090;2022-11-20T04:06:43;101315.97;;;-2.29;90.70
75692;BME280;64307;52.508;6.090;2022-11-20T04:09:09;101332.91;;;-2.14;91.08
75692;BME280;64307;52.508;6.090;2022-11-20T04:11:36;101325.50;;;-2.13;90.95
75692;BME280;64307;52.508;6.090;2022-11-20T04:14:06;101329.56;;;-2.11;90.92
75692;BME280;64307;52.508;6.090;2022-11-20T04:16:37;101311.75;;;-2.22;90.58
75692;BME280;64307;52.508;6.090;2022-11-20T04:19:04;101315.91;;;-2.24;90.23
75692;BME280;64307;52.508;6.090;2022-11-20T04:21:30;101317.00;;;-2.25;90.49
75692;BME280;64307;52.508;6.090;2022-11-20T04:23:56;101320.22;;;-2.23;90.17
75692;BME280;64307;52.508;6.090;2022-11-20T04:26:23;101302.56;;;-2.26;90.38
75692;BME280;64307;52.508;6.090;2022-11-20T04:28:49;101307.91;;;-2.21;90.14
75692;BME280;64307;52.508;6.090;2022-11-20T04:31:17;101309.31;;;-2.23;90.30
75692;BME280;64307;52.508;6.090;2022-11-20T04:33:43;101296.75;;;-2.38;89.94
75692;BME280;64307;52.508;6.090;2022-11-20T04:36:14;101315.19;;;-2.30;90.10
75692;BME280;64307;52.508;6.090;2022-11-20T04:38:39;101308.09;;;-2.31;89.78
75692;BME280;64307;52.508;6.090;2022-11-20T04:41:07;101316.78;;;-2.29;90.15
75692;BME280;64307;52.508;6.090;2022-11-20T04:43:33;101311.34;;;-2.29;89.84
75692;BME280;64307;52.508;6.090;2022-11-20T04:45:59;101314.38;;;-2.30;89.86
75692;BME280;64307;52.508;6.090;2022-11-20T04:48:25;101305.75;;;-2.37;89.86
75692;BME280;64307;52.508;6.090;2022-11-20T04:50:51;101294.97;;;-2.42;90.00
75692;BME280;64307;52.508;6.090;2022-11-20T04:53:17;101297.56;;;-2.37;90.41
75692;BME280;64307;52.508;6.090;2022-11-20T04:55:43;101286.53;;;-2.46;90.32
75692;BME280;64307;52.508;6.090;2022-11-20T04:58:09;101292.13;;;-2.37;89.74
75692;BME280;64307;52.508;6.090;2022-11-20T05:00:34;101278.88;;;-2.44;90.09
75692;BME280;64307;52.508;6.090;2022-11-20T05:02:59;101278.16;;;-2.50;89.82
75692;BME280;64307;52.508;6.090;2022-11-20T05:05:25;101281.13;;;-2.32;89.76
75692;BME280;64307;52.508;6.090;2022-11-20T05:07:50;101260.72;;;-2.48;89.92
75692;BME280;64307;52.508;6.090;2022-11-20T05:10:16;101272.53;;;-2.39;89.67
75692;BME280;64307;52.508;6.090;2022-11-20T05:12:41;101279.19;;;-2.45;89.21
75692;BME280;64307;52.508;6.090;2022-11-20T05:15:07;101265.25;;;-2.44;90.02
75692;BME280;64307;52.508;6.090;2022-11-20T05:17:32;101267.69;;;-2.42;89.26
75692;BME280;64307;52.508;6.090;2022-11-20T05:19:57;101278.19;;;-2.36;90.09
75692;BME280;64307;52.508;6.090;2022-11-20T05:22:23;101275.44;;;-2.36;89.51
75692;BME280;64307;52.508;6.090;2022-11-20T05:24:48;101256.56;;;-2.46;89.11
75692;BME280;64307;52.508;6.090;2022-11-20T05:27:13;101268.28;;;-2.45;89.39
75692;BME280;64307;52.508;6.090;2022-11-20T05:29:38;101273.84;;;-2.51;89.39
75692;BME280;64307;52.508;6.090;2022-11-20T05:32:04;101282.53;;;-2.48;89.30
75692;BME280;64307;52.508;6.090;2022-11-20T05:34:31;101269.69;;;-2.48;89.26
75692;BME280;64307;52.508;6.090;2022-11-20T05:36:56;101269.03;;;-2.59;89.54
75692;BME280;64307;52.508;6.090;2022-11-20T05:39:21;101284.81;;;-2.56;89.41
75692;BME280;64307;52.508;6.090;2022-11-20T05:41:47;101280.19;;;-2.55;89.80
75692;BME280;64307;52.508;6.090;2022-11-20T05:44:32;101275.41;;;-2.63;89.52
75692;BME280;64307;52.508;6.090;2022-11-20T05:46:57;101286.19;;;-2.72;89.45
75692;BME280;64307;52.508;6.090;2022-11-20T05:49:22;101276.00;;;-2.66;90.15
75692;BME280;64307;52.508;6.090;2022-11-20T05:51:48;101268.00;;;-2.76;90.38
75692;BME280;64307;52.508;6.090;2022-11-20T05:54:13;101261.72;;;-2.77;90.32
75692;BME280;64307;52.508;6.090;2022-11-20T05:56:39;101263.34;;;-2.76;90.78
75692;BME280;64307;52.508;6.090;2022-11-20T05:59:04;101264.59;;;-2.68;90.69
75692;BME280;64307;52.508;6.090;2022-11-20T06:01:29;101270.50;;;-2.80;91.04
75692;BME280;64307;52.508;6.090;2022-11-20T06:03:54;101269.56;;;-2.89;91.78
75692;BME280;64307;52.508;6.090;2022-11-20T06:06:20;101274.13;;;-2.84;91.35
75692;BME280;64307;52.508;6.090;2022-11-20T06:08:46;101265.75;;;-2.88;92.09
75692;BME280;64307;52.508;6.090;2022-11-20T06:11:12;101273.41;;;-2.90;91.09
75692;BME280;64307;52.508;6.090;2022-11-20T06:13:38;101277.16;;;-2.86;91.92
75692;BME280;64307;52.508;6.090;2022-11-20T06:16:04;101253.00;;;-2.92;91.68
75692;BME280;64307;52.508;6.090;2022-11-20T06:18:30;101265.00;;;-2.93;91.69
75692;BME280;64307;52.508;6.090;2022-11-20T06:21:22;101270.06;;;-2.87;91.84
75692;BME280;64307;52.508;6.090;2022-11-20T06:23:48;101268.28;;;-2.78;91.06
75692;BME280;64307;52.508;6.090;2022-11-20T06:26:18;101269.91;;;-2.77;90.76
75692;BME280;64307;52.508;6.090;2022-11-20T06:28:44;101274.84;;;-2.79;90.74
75692;BME280;64307;52.508;6.090;2022-11-20T06:31:12;101279.94;;;-2.91;91.47
75692;BME280;64307;52.508;6.090;2022-11-20T06:33:38;101264.28;;;-2.99;91.43
75692;BME280;64307;52.508;6.090;2022-11-20T06:36:04;101261.34;;;-3.02;91.24
75692;BME280;64307;52.508;6.090;2022-11-20T06:38:30;101261.47;;;-2.94;91.27
75692;BME280;64307;52.508;6.090;2022-11-20T06:40:55;101269.31;;;-3.06;91.55
75692;BME280;64307;52.508;6.090;2022-11-20T06:43:21;101272.84;;;-2.73;90.73
75692;BME280;64307;52.508;6.090;2022-11-20T06:45:52;101269.66;;;-2.94;90.47
75692;BME280;64307;52.508;6.090;2022-11-20T06:48:17;101282.53;;;-2.99;90.89
75692;BME280;64307;52.508;6.090;2022-11-20T06:50:43;101280.03;;;-2.96;90.94
75692;BME280;64307;52.508;6.090;2022-11-20T06:53:08;101277.16;;;-2.86;90.41
75692;BME280;64307;52.508;6.090;2022-11-20T06:55:33;101289.25;;;-2.92;90.20
75692;BME280;64307;52.508;6.090;2022-11-20T06:57:58;101291.16;;;-2.92;91.06
75692;BME280;64307;52.508;6.090;2022-11-20T07:00:24;101286.00;;;-3.12;91.31
75692;BME280;64307;52.508;6.090;2022-11-20T07:02:49;101287.75;;;-3.03;91.42
75692;BME280;64307;52.508;6.090;2022-11-20T07:05:15;101290.44;;;-2.98;91.80
75692;BME280;64307;52.508;6.090;2022-11-20T07:07:40;101288.88;;;-3.04;91.35
75692;BME280;64307;52.508;6.090;2022-11-20T07:10:06;101283.47;;;-2.90;91.11
75692;BME280;64307;52.508;6.090;2022-11-20T07:12:31;101288.47;;;-2.79;90.96
75692;BME280;64307;52.508;6.090;2022-11-20T07:14:57;101280.97;;;-2.87;89.77
75692;BME280;64307;52.508;6.090;2022-11-20T07:17:22;101279.78;;;-2.81;90.20
75692;BME280;64307;52.508;6.090;2022-11-20T07:19:47;101279.34;;;-2.69;89.70
75692;BME280;64307;52.508;6.090;2022-11-20T07:22:12;101285.94;;;-2.57;89.41
75692;BME280;64307;52.508;6.090;2022-11-20T07:24:38;101275.41;;;-2.63;89.51
75692;BME280;64307;52.508;6.090;2022-11-20T07:27:04;101274.44;;;-2.86;89.50
75692;BME280;64307;52.508;6.090;2022-11-20T07:29:29;101271.53;;;-2.76;89.98
75692;BME280;64307;52.508;6.090;2022-11-20T07:31:55;101262.53;;;-2.76;89.13
75692;BME280;64307;52.508;6.090;2022-11-20T07:34:24;101270.59;;;-2.85;90.18
75692;BME280;64307;52.508;6.090;2022-11-20T07:36:52;101259.00;;;-2.77;89.70
75692;BME280;64307;52.508;6.090;2022-11-20T07:39:17;101262.78;;;-2.91;89.86
75692;BME280;64307;52.508;6.090;2022-11-20T07:41:42;101245.78;;;-2.83;89.21
75692;BME280;64307;52.508;6.090;2022-11-20T07:44:08;101256.44;;;-2.87;89.16
75692;BME280;64307;52.508;6.090;2022-11-20T07:46:33;101251.94;;;-2.78;89.11
75692;BME280;64307;52.508;6.090;2022-11-20T07:48:58;101244.34;;;-2.81;87.98
75692;BME280;64307;52.508;6.090;2022-11-20T07:51:23;101244.66;;;-2.82;88.09
75692;BME280;64307;52.508;6.090;2022-11-20T07:53:52;101243.06;;;-2.83;88.32
75692;BME280;64307;52.508;6.090;2022-11-20T07:56:17;101248.94;;;-2.63;87.43
75692;BME280;64307;52.508;6.090;2022-11-20T07:58:43;101244.75;;;-2.55;87.89
75692;BME280;64307;52.508;6.090;2022-11-20T08:01:09;101241.63;;;-2.48;87.58
75692;BME280;64307;52.508;6.090;2022-11-20T08:03:35;101231.75;;;-2.44;86.80
75692;BME280;64307;52.508;6.090;2022-11-20T08:06:03;101238.28;;;-2.45;86.64
75692;BME280;64307;52.508;6.090;2022-11-20T08:08:29;101241.81;;;-2.45;87.23
75692;BME280;64307;52.508;6.090;2022-11-20T08:10:57;101236.38;;;-2.45;86.99
75692;BME280;64307;52.508;6.090;2022-11-20T08:13:42;101244.06;;;-2.33;86.52
75692;BME280;64307;52.508;6.090;2022-11-20T08:16:26;101248.41;;;-2.32;86.78
75692;BME280;64307;52.508;6.090;2022-11-20T08:18:51;101242.56;;;-2.26;86.61
75692;BME280;64307;52.508;6.090;2022-11-20T08:21:16;101245.69;;;-2.19;86.68
75692;BME280;64307;52.508;6.090;2022-11-20T08:23:42;101238.63;;;-2.20;86.53
75692;BME280;64307;52.508;6.090;2022-11-20T08:26:07;101232.78;;;-2.00;86.20
75692;BME280;64307;52.508;6.090;2022-11-20T08:28:32;101229.94;;;-1.81;85.83
75692;BME280;64307;52.508;6.090;2022-11-20T08:31:02;101228.72;;;-1.75;84.74
75692;BME280;64307;52.508;6.090;2022-11-20T08:33:29;101220.16;;;-1.60;84.71
75692;BME280;64307;52.508;6.090;2022-11-20T08:35:58;101212.69;;;-1.68;85.08
75692;BME280;64307;52.508;6.090;2022-11-20T08:38:23;101214.78;;;-1.51;84.39
75692;BME280;64307;52.508;6.090;2022-11-20T08:40:48;101216.50;;;-1.42;84.38
75692;BME280;64307;52.508;6.090;2022-11-20T08:43:33;101206.94;;;-1.31;83.55
75692;BME280;64307;52.508;6.090;2022-11-20T08:45:59;101199.25;;;-1.07;82.92
75692;BME280;64307;52.508;6.090;2022-11-20T08:48:24;101207.31;;;-0.79;81.83
75692;BME280;64307;52.508;6.090;2022-11-20T08:50:49;101203.38;;;-0.65;80.29
75692;BME280;64307;52.508;6.090;2022-11-20T08:53:14;101207.69;;;-0.72;81.22
75692;BME280;64307;52.508;6.090;2022-11-20T08:55:40;101213.44;;;-0.82;81.72
75692;BME280;64307;52.508;6.090;2022-11-20T08:58:05;101209.66;;;-0.64;81.16
75692;BME280;64307;52.508;6.090;2022-11-20T09:00:32;101210.22;;;-0.54;80.58
75692;BME280;64307;52.508;6.090;2022-11-20T09:02:57;101208.13;;;-0.18;78.35
75692;BME280;64307;52.508;6.090;2022-11-20T09:05:24;101200.56;;;0.53;76.48
75692;BME280;64307;52.508;6.090;2022-11-20T09:07:49;101201.69;;;1.66;70.08
75692;BME280;64307;52.508;6.090;2022-11-20T09:10:14;101198.28;;;1.70;70.86
75692;BME280;64307;52.508;6.090;2022-11-20T09:12:39;101197.66;;;5.22;59.65
75692;BME280;64307;52.508;6.090;2022-11-20T09:15:05;101186.78;;;6.04;53.45
75692;BME280;64307;52.508;6.090;2022-11-20T09:17:30;101184.44;;;9.01;47.41
75692;BME280;64307;52.508;6.090;2022-11-20T09:19:55;101190.50;;;8.51;46.77
75692;BME280;64307;52.508;6.090;2022-11-20T09:22:21;101177.94;;;11.48;41.21
75692;BME280;64307;52.508;6.090;2022-11-20T09:24:47;101181.19;;;9.66;42.31
75692;BME280;64307;52.508;6.090;2022-11-20T09:27:12;101177.88;;;11.16;38.83
75692;BME280;64307;52.508;6.090;2022-11-20T09:29:37;101177.69;;;9.72;40.92
75692;BME280;64307;52.508;6.090;2022-11-20T09:32:03;101172.31;;;11.20;38.56
75692;BME280;64307;52.508;6.090;2022-11-20T09:34:28;101164.25;;;10.97;39.27
75692;BME280;64307;52.508;6.090;2022-11-20T09:36:54;101175.66;;;12.34;36.56
75692;BME280;64307;52.508;6.090;2022-11-20T09:39:19;101171.03;;;13.18;34.73
75692;BME280;64307;52.508;6.090;2022-11-20T09:50:45;101159.25;;;14.10;31.80
75692;BME280;64307;52.508;6.090;2022-11-20T09:56:17;101149.84;;;14.34;32.12
75692;BME280;64307;52.508;6.090;2022-11-20T09:58:55;101138.97;;;15.07;30.87
75692;BME280;64307;52.508;6.090;2022-11-20T10:01:26;101143.75;;;14.76;30.65
75692;BME280;64307;52.508;6.090;2022-11-20T10:04:10;101149.84;;;14.34;31.71
75692;BME280;64307;52.508;6.090;2022-11-20T10:09:37;101155.13;;;4.68;54.37
75692;BME280;64307;52.508;6.090;2022-11-20T10:12:12;101167.38;;;4.06;57.00
75692;BME280;64307;52.508;6.090;2022-11-20T10:20:46;101147.78;;;2.20;65.28
75692;BME280;64307;52.508;6.090;2022-11-20T10:23:26;101150.41;;;2.37;66.19
75692;BME280;64307;52.508;6.090;2022-11-20T10:31:36;101132.69;;;2.26;66.88
75692;BME280;64307;52.508;6.090;2022-11-20T10:34:20;101137.19;;;1.81;68.68
75692;BME280;64307;52.508;6.090;2022-11-20T10:36:52;101139.34;;;1.67;69.27
75692;BME280;64307;52.508;6.090;2022-11-20T10:39:29;101126.00;;;1.57;71.19
75692;BME280;64307;52.508;6.090;2022-11-20T10:41:56;101126.84;;;1.49;71.79
75692;BME280;64307;52.508;6.090;2022-11-20T10:44:26;101118.41;;;1.54;72.05
75692;BME280;64307;52.508;6.090;2022-11-20T10:47:18;101115.28;;;1.35;72.26
75692;BME280;64307;52.508;6.090;2022-11-20T10:49:47;101112.13;;;1.62;71.07
75692;BME280;64307;52.508;6.090;2022-11-20T10:52:26;101122.34;;;1.82;72.12
75692;BME280;64307;52.508;6.090;2022-11-20T10:55:15;101114.22;;;2.35;70.86
75692;BME280;64307;52.508;6.090;2022-11-20T11:00:30;101103.28;;;3.13;67.33
75692;BME280;64307;52.508;6.090;2022-11-20T11:02:57;101113.22;;;3.86;65.82
75692;BME280;64307;52.508;6.090;2022-11-20T11:05:43;101104.75;;;3.79;64.45
75692;BME280;64307;52.508;6.090;2022-11-20T11:08:14;101103.53;;;6.05;59.42
75692;BME280;64307;52.508;6.090;2022-11-20T11:11:00;101094.28;;;9.76;48.16
75692;BME280;64307;52.508;6.090;2022-11-20T11:13:29;101096.31;;;9.35;46.97
75692;BME280;64307;52.508;6.090;2022-11-20T11:15:55;101086.59;;;10.92;43.68
75692;BME280;64307;52.508;6.090;2022-11-20T11:18:32;101082.16;;;10.05;46.57
75692;BME280;64307;52.508;6.090;2022-11-20T11:21:00;101080.19;;;9.11;48.56
75692;BME280;64307;52.508;6.090;2022-11-20T11:23:31;101077.88;;;7.72;53.43
75692;BME280;64307;52.508;6.090;2022-11-20T11:25:59;101075.09;;;7.23;54.74
75692;BME280;64307;52.508;6.090;2022-11-20T11:28:25;101073.22;;;9.28;49.87
75692;BME280;64307;52.508;6.090;2022-11-20T11:30:52;101055.00;;;9.81;48.06
75692;BME280;64307;52.508;6.090;2022-11-20T11:33:24;101045.28;;;11.50;43.79
75692;BME280;64307;52.508;6.090;2022-11-20T11:35:54;101049.25;;;11.18;44.24
75692;BME280;64307;52.508;6.090;2022-11-20T11:38:35;101052.38;;;12.22;42.14
75692;BME280;64307;52.508;6.090;2022-11-20T11:41:02;101021.16;;;10.40;46.00
75692;BME280;64307;52.508;6.090;2022-11-20T11:43:30;101039.53;;;6.41;57.75
75692;BME280;64307;52.508;6.090;2022-11-20T11:46:32;101035.59;;;6.23;59.48
75692;BME280;64307;52.508;6.090;2022-11-20T11:49:13;101034.38;;;4.77;66.14
75692;BME280;64307;52.508;6.090;2022-11-20T11:54:55;101036.47;;;3.37;73.95
75692;BME280;64307;52.508;6.090;2022-11-20T11:57:39;101032.69;;;3.65;73.19
75692;BME280;64307;52.508;6.090;2022-11-20T12:00:15;101031.19;;;3.56;73.83
75692;BME280;64307;52.508;6.090;2022-11-20T12:05:36;101033.84;;;3.40;75.34
75692;BME280;64307;52.508;6.090;2022-11-20T12:09:05;101031.28;;;3.59;75.42
75692;BME280;64307;52.508;6.090;2022-11-20T12:11:23;101017.78;;;3.30;76.31
75692;BME280;64307;52.508;6.090;2022-11-20T12:13:54;101012.03;;;3.47;77.00
75692;BME280;64307;52.508;6.090;2022-11-20T12:16:21;101009.16;;;3.44;77.10
75692;BME280;64307;52.508;6.090;2022-11-20T12:18:51;101003.75;;;3.71;76.42
75692;BME280;64307;52.508;6.090;2022-11-20T12:29:33;100974.41;;;3.51;77.41
75692;BME280;64307;52.508;6.090;2022-11-20T12:43:24;100956.66;;;3.37;79.36
75692;BME280;64307;52.508;6.090;2022-11-20T12:46:29;100957.47;;;3.25;79.79
75692;BME280;64307;52.508;6.090;2022-11-20T12:54:44;100945.31;;;3.38;79.43
75692;BME280;64307;52.508;6.090;2022-11-20T12:57:52;100932.91;;;3.44;78.64
75692;BME280;64307;52.508;6.090;2022-11-20T13:00:22;100924.31;;;3.33;78.55
75692;BME280;64307;52.508;6.090;2022-11-20T13:03:06;100927.16;;;3.37;79.14
75692;BME280;64307;52.508;6.090;2022-11-20T13:06:15;100911.56;;;3.41;78.10
75692;BME280;64307;52.508;6.090;2022-11-20T13:08:45;100921.63;;;3.49;77.68
75692;BME280;64307;52.508;6.090;2022-11-20T13:11:32;100916.25;;;3.53;77.81
75692;BME280;64307;52.508;6.090;2022-11-20T13:14:19;100915.19;;;3.57;78.11
75692;BME280;64307;52.508;6.090;2022-11-20T13:16:58;100905.03;;;3.46;77.74
75692;BME280;64307;52.508;6.090;2022-11-20T13:19:24;100908.81;;;3.41;77.92
75692;BME280;64307;52.508;6.090;2022-11-20T13:21:50;100904.50;;;3.28;78.85
75692;BME280;64307;52.508;6.090;2022-11-20T13:26:43;100898.59;;;3.42;78.48
75692;BME280;64307;52.508;6.090;2022-11-20T13:29:12;100890.59;;;3.37;78.72
75692;BME280;64307;52.508;6.090;2022-11-20T13:31:43;100879.38;;;3.29;78.94
75692;BME280;64307;52.508;6.090;2022-11-20T13:34:13;100890.94;;;3.35;78.45
75692;BME280;64307;52.508;6.090;2022-11-20T13:36:49;100883.03;;;3.33;78.69
75692;BME280;64307;52.508;6.090;2022-11-20T13:39:34;100876.38;;;3.34;78.11
75692;BME280;64307;52.508;6.090;2022-11-20T13:42:25;100867.34;;;3.22;78.74
75692;BME280;64307;52.508;6.090;2022-11-20T13:44:53;100865.19;;;3.15;78.77
75692;BME280;64307;52.508;6.090;2022-11-20T13:47:26;100860.25;;;3.21;77.87
75692;BME280;64307;52.508;6.090;2022-11-20T13:49:53;100852.81;;;3.09;78.14
75692;BME280;64307;52.508;6.090;2022-11-20T13:55:18;100849.47;;;3.04;79.86
75692;BME280;64307;52.508;6.090;2022-11-20T14:00:24;100850.16;;;3.13;78.67
75692;BME280;64307;52.508;6.090;2022-11-20T14:05:35;100851.53;;;3.19;78.68
75692;BME280;64307;52.508;6.090;2022-11-20T14:08:03;100831.25;;;3.11;79.95
75692;BME280;64307;52.508;6.090;2022-11-20T14:10:30;100837.66;;;3.15;78.92
75692;BME280;64307;52.508;6.090;2022-11-20T14:12:55;100834.13;;;3.03;79.59
75692;BME280;64307;52.508;6.090;2022-11-20T14:15:29;100831.63;;;3.10;79.50
75692;BME280;64307;52.508;6.090;2022-11-20T14:17:55;100821.53;;;3.14;78.25